Terminal Aerodrome Forecast
Issued by NWS

Home | Current Version | Previous Version | Graphics & Text | Print | Product List | Glossary On
Versions: 1 2 3 4 5 6 7 8 9 10 11 12 13 14 15 16 17 18 19
607
FTUS43 KICT 231732
TAFRSL
TAF
KRSL 231732Z 2318/2418 19018G25KT P6SM FEW060
     FM240100 16012KT P6SM SCT080 BKN150
     FM241000 15012KT P6SM VCTS SCT025 BKN050CB=

USA.gov is the U.S. government's official web portal to all federal, state and local government web resources and services.